Time;durP1;ratioP1;P1;durP2;ratioP2;P2;SDS_P1;SDS_P2;PMS_P1;PMS_P2;Temp;Humidity;BMP_temperature;BMP_pressure;BME280_temperature;BME280_humidity;BME280_pressure;Samples;Min_cycle;Max_cycle;Signal;HPM_P1;HPM_P2
2023/08/09 07:23:03;;;;;;;16.35;14.85;;;;;;;-145.79;100.00;77508.69;5255096;28;20381;-75
2023/08/09 07:25:37;;;;;;;15.75;14.35;;;;;;;-145.79;100.00;77495.97;5297673;28;20093;-76
2023/08/09 07:28:08;;;;;;;16.50;14.80;;;;;;;-145.79;100.00;77489.63;5291322;28;20033;-76
2023/08/09 07:30:40;;;;;;;15.48;14.07;;;;;;;-145.79;100.00;77476.91;5285276;28;20385;-75
2023/08/09 07:33:13;;;;;;;16.08;14.63;;;;;;;-145.79;100.00;77466.31;5292895;28;20038;-76
2023/08/09 07:35:45;;;;;;;15.68;14.10;;;;;;;-145.79;100.00;77466.31;5281439;28;20020;-76
2023/08/09 07:38:17;;;;;;;14.90;13.50;;;;;;;-145.79;100.00;77468.41;5248244;28;20474;-76
2023/08/09 07:40:48;;;;;;;16.13;14.60;;;;;;;-145.79;100.00;77468.41;5282106;28;20036;-76
2023/08/09 07:43:19;;;;;;;15.25;13.80;;;;;;;-145.79;100.00;77459.94;5232182;28;20019;-75
2023/08/09 07:45:51;;;;;;;14.55;13.25;;;;;;;-145.79;100.00;77457.81;5274083;28;20031;-75
2023/08/09 07:48:22;;;;;;;13.60;12.40;;;;;;;-145.79;100.00;77451.47;5295431;28;20110;-75
2023/08/09 07:50:53;;;;;;;9.40;8.60;;;;;;;-145.79;100.00;77419.66;5246375;28;20150;-74
2023/08/09 07:53:25;;;;;;;13.88;12.52;;;;;;;-145.79;99.95;77423.91;5281547;28;20128;-73
2023/08/09 07:55:56;;;;;;;13.20;11.90;;;;;;;-145.79;100.00;77415.44;5231347;28;20033;-74
2023/08/09 07:58:27;;;;;;;13.98;12.70;;;;;;;-145.79;100.00;77423.91;5247450;28;20018;-75
2023/08/09 08:00:59;;;;;;;13.50;12.27;;;;;;;-145.79;100.00;77440.88;5252628;28;20513;-77
2023/08/09 08:03:31;;;;;;;13.30;12.00;;;;;;;-145.79;100.00;77455.69;5295758;28;20032;-72
2023/08/09 08:06:02;;;;;;;13.80;12.48;;;;;;;-145.79;100.00;77438.75;5306800;28;20038;-75
2023/08/09 08:08:34;;;;;;;13.73;12.60;;;;;;;-145.79;100.00;77432.38;5256131;28;20465;-74
2023/08/09 08:11:05;;;;;;;13.90;12.60;;;;;;;-145.79;100.00;77417.53;5289742;28;20077;-73
2023/08/09 08:13:36;;;;;;;13.73;12.43;;;;;;;-145.79;100.00;77411.19;5251138;28;20032;-72
2023/08/09 08:16:08;;;;;;;12.27;11.07;;;;;;;-145.79;99.89;77392.13;5260195;28;20031;-72
2023/08/09 08:18:39;;;;;;;10.57;9.68;;;;;;;-145.79;97.86;77368.78;5239265;28;20478;-73
2023/08/09 08:21:11;;;;;;;8.60;7.68;;;;;;;-145.79;95.17;77330.66;5306000;28;20542;-73
2023/08/09 08:23:42;;;;;;;12.27;11.18;;;;;;;-145.79;95.05;77358.19;5256792;28;20027;-73
2023/08/09 08:26:15;;;;;;;12.40;11.20;;;;;;;-145.79;96.10;77343.38;5239358;28;20024;-71
2023/08/09 08:28:46;;;;;;;12.40;11.30;;;;;;;-145.79;95.84;77351.84;5287343;28;20031;-71
2023/08/09 08:31:19;;;;;;;8.70;7.90;;;;;;;-145.79;94.71;77324.28;5229502;28;20376;-73
2023/08/09 08:33:51;;;;;;;8.45;7.30;;;;;;;-145.79;93.74;77322.16;5274392;28;20019;-71
2023/08/09 08:36:25;;;;;;;8.30;7.55;;;;;;;-145.79;93.40;77322.16;5271505;28;20025;-71
2023/08/09 08:38:57;;;;;;;7.50;6.43;;;;;;;-145.79;92.46;77300.97;5271420;28;20379;-72
2023/08/09 08:41:29;;;;;;;10.18;9.18;;;;;;;-145.79;92.75;77322.16;5276103;28;20089;-72
2023/08/09 08:44:01;;;;;;;10.70;9.60;;;;;;;-145.79;93.50;77326.41;5246715;28;20036;-71
2023/08/09 08:46:33;;;;;;;9.88;8.88;;;;;;;-145.79;94.01;77332.75;5269001;28;20032;-71
2023/08/09 08:49:05;;;;;;;11.13;7.55;;;;;;;-145.79;94.26;77313.69;5276398;28;20033;-71
2023/08/09 08:51:38;;;;;;;10.80;9.60;;;;;;;-145.79;94.94;77326.41;5242886;28;20019;-71
2023/08/09 08:54:12;;;;;;;7.28;6.57;;;;;;;-145.79;92.13;77290.38;5291497;28;20038;-71
2023/08/09 08:56:43;;;;;;;8.32;7.28;;;;;;;-145.79;91.11;77271.28;5275258;28;20026;-70
2023/08/09 08:59:16;;;;;;;10.38;9.35;;;;;;;-145.79;92.61;77288.25;5274788;28;20034;-71
2023/08/09 09:01:47;;;;;;;9.48;6.85;;;;;;;-145.79;90.86;77275.53;5238445;28;20032;-71
2023/08/09 09:04:19;;;;;;;9.27;8.43;;;;;;;-145.79;91.00;77284.00;5222289;28;20105;-71
2023/08/09 09:06:50;;;;;;;8.85;8.00;;;;;;;-145.79;90.61;77284.00;5267068;28;20037;-72
2023/08/09 09:09:21;;;;;;;10.88;9.77;;;;;;;-145.79;90.85;77288.25;5219153;28;20503;-71
2023/08/09 09:11:53;;;;;;;8.55;7.75;;;;;;;-145.79;89.47;77271.28;5220500;28;20444;-71
2023/08/09 09:14:24;;;;;;;9.55;8.52;;;;;;;-145.79;88.92;77271.28;5259381;28;20103;-72
2023/08/09 09:16:58;;;;;;;7.70;6.60;;;;;;;-145.79;87.49;77235.25;5251433;28;20164;-71
2023/08/09 09:19:33;;;;;;;9.57;8.60;;;;;;;-145.79;88.66;77245.84;5261060;28;20026;-71
2023/08/09 09:22:05;;;;;;;8.73;7.43;;;;;;;-145.79;88.53;77237.38;5239918;28;20070;-69
2023/08/09 09:24:39;;;;;;;7.75;6.95;;;;;;;-145.79;86.59;77222.53;5290648;28;20054;-72
2023/08/09 09:27:10;;;;;;;9.55;8.55;;;;;;;-145.79;87.18;77231.03;5239387;28;20016;-71
2023/08/09 09:29:41;;;;;;;11.30;8.35;;;;;;;-145.79;86.25;77231.03;5289631;28;20164;-72
2023/08/09 09:32:13;;;;;;;9.07;8.15;;;;;;;-145.79;86.97;77211.94;5275025;28;20104;-71
2023/08/09 09:34:44;;;;;;;9.30;8.32;;;;;;;-145.79;84.92;77207.72;5273569;28;20515;-72
2023/08/09 09:37:17;;;;;;;10.23;8.38;;;;;;;-145.79;84.61;77235.25;5302089;28;20036;-72
2023/08/09 09:39:49;;;;;;;11.43;8.27;;;;;;;-145.79;83.82;77267.06;5236221;28;20021;-72
2023/08/09 09:42:31;;;;;;;9.95;7.85;;;;;;;-145.79;85.23;77247.97;5288093;28;20080;-72
2023/08/09 09:45:07;;;;;;;9.98;8.98;;;;;;;-145.79;87.03;77224.66;5287561;28;20226;-71
2023/08/09 09:47:39;;;;;;;11.40;8.30;;;;;;;-145.79;85.02;77175.91;5273597;28;20349;-72
2023/08/09 09:50:10;;;;;;;8.93;8.00;;;;;;;-145.79;85.21;77173.78;5278665;28;20072;-71
2023/08/09 09:52:42;;;;;;;9.82;8.85;;;;;;;-145.79;81.54;77188.63;5287909;28;20446;-72
2023/08/09 09:55:16;;;;;;;10.07;7.68;;;;;;;-145.79;82.61;77161.06;5230827;28;20045;-71
2023/08/09 09:57:47;;;;;;;8.27;7.50;;;;;;;-145.79;82.24;77131.41;5263650;28;20037;-72
2023/08/09 10:00:25;;;;;;;9.50;8.18;;;;;;;-145.79;80.89;77139.88;5239596;28;20085;-72
2023/08/09 10:03:00;;;;;;;7.40;6.70;;;;;;;-145.79;79.99;77120.81;5289202;28;20061;-74
2023/08/09 10:05:37;;;;;;;8.07;7.30;;;;;;;-145.79;80.22;77129.28;5290823;28;20112;-74
2023/08/09 10:08:10;;;;;;;8.98;8.18;;;;;;;-145.79;80.49;77137.75;5290484;28;20023;-73
2023/08/09 10:10:44;;;;;;;7.72;7.00;;;;;;;-145.79;79.95;77148.34;5235966;28;20027;-73
2023/08/09 10:13:21;;;;;;;7.15;6.55;;;;;;;-145.79;78.06;77139.88;5223933;28;20033;-73
2023/08/09 10:16:02;;;;;;;7.97;7.18;;;;;;;-145.79;79.41;77131.41;5256561;28;20023;-73
2023/08/09 10:18:42;;;;;;;8.45;7.65;;;;;;;-145.79;80.30;77110.22;5259545;28;20362;-73
2023/08/09 10:21:17;;;;;;;6.30;5.80;;;;;;;-145.79;76.35;77105.97;5273726;28;20552;-73
2023/08/09 10:23:56;;;;;;;7.28;5.97;;;;;;;-145.79;75.60;77122.94;5280330;28;20053;-73
2023/08/09 10:26:29;;;;;;;7.80;6.75;;;;;;;-145.79;76.07;77118.69;5290865;28;20023;-74
2023/08/09 10:29:10;;;;;;;7.43;6.38;;;;;;;-145.79;77.74;77108.09;5235396;28;20104;-73
2023/08/09 10:31:53;;;;;;;9.18;7.68;;;;;;;-145.79;76.44;77105.97;5241681;28;20022;-73
2023/08/09 10:34:40;;;;;;;10.45;8.13;;;;;;;-145.79;77.16;77110.22;5246086;28;20015;-73
2023/08/09 10:37:23;;;;;;;7.53;6.75;;;;;;;-145.79;77.66;77099.63;5276379;28;20418;-72
2023/08/09 10:40:16;;;;;;;6.93;6.18;;;;;;;-145.79;76.92;77101.72;5275317;28;20049;-72
2023/08/09 10:42:47;;;;;;;6.00;4.88;;;;;;;-145.79;73.93;77110.22;5266756;28;20498;-71
2023/08/09 10:45:19;;;;;;;5.18;4.78;;;;;;;-145.79;73.42;77114.44;5263959;28;20121;-72
2023/08/09 10:47:50;;;;;;;4.55;4.15;;;;;;;-145.79;73.75;77103.84;5272916;28;20021;-71
2023/08/09 10:50:24;;;;;;;5.22;4.72;;;;;;;-145.79;73.70;77105.97;5246814;28;20033;-72
2023/08/09 10:53:00;;;;;;;4.82;4.43;;;;;;;-145.79;74.25;77097.50;5289507;28;20068;-71
2023/08/09 10:55:31;;;;;;;6.13;4.60;;;;;;;-145.79;74.26;77108.09;5275412;28;20033;-71
2023/08/09 10:58:03;;;;;;;6.18;3.92;;;;;;;-145.79;72.19;77101.72;5272350;28;20492;-70
2023/08/09 11:00:41;;;;;;;4.35;3.95;;;;;;;-145.79;69.68;77080.53;5255888;28;20023;-74
2023/08/09 11:03:12;;;;;;;3.75;3.33;;;;;;;-145.79;67.87;77067.81;5247515;28;20422;-71
2023/08/09 11:05:45;;;;;;;2.92;2.72;;;;;;;-145.79;67.36;77048.75;5214460;28;20022;-71
2023/08/09 11:08:18;;;;;;;3.47;3.17;;;;;;;-145.79;68.23;77033.91;5261321;28;20374;-72
2023/08/09 11:10:50;;;;;;;5.57;4.00;;;;;;;-145.79;67.98;77044.50;5227281;28;20064;-72
2023/08/09 11:13:22;;;;;;;3.88;3.10;;;;;;;-145.79;68.24;77016.94;5265447;28;20430;-71
2023/08/09 11:15:53;;;;;;;3.40;2.65;;;;;;;-145.79;65.52;77021.19;5253862;28;20026;-72
2023/08/09 11:18:25;;;;;;;4.20;2.60;;;;;;;-145.79;67.50;77019.06;5272151;28;20086;-72
2023/08/09 11:20:56;;;;;;;2.78;2.42;;;;;;;-145.79;68.68;77004.25;5241478;28;20039;-72
2023/08/09 11:23:28;;;;;;;2.85;2.65;;;;;;;-145.79;68.25;76983.03;5289104;28;20032;-72
2023/08/09 11:26:00;;;;;;;4.40;2.72;;;;;;;-145.79;65.82;76993.63;5277195;28;20157;-72
2023/08/09 11:28:31;;;;;;;2.72;2.53;;;;;;;-145.79;65.30;76995.75;5273245;28;20048;-73
2023/08/09 11:31:03;;;;;;;4.00;2.60;;;;;;;-145.79;64.71;76968.22;5284340;28;20153;-72
2023/08/09 11:33:34;;;;;;;2.67;2.47;;;;;;;-145.79;64.95;76980.94;5288227;28;20032;-72
2023/08/09 11:36:08;;;;;;;3.55;2.58;;;;;;;-145.79;65.72;76987.28;5273013;28;20086;-72
2023/08/09 11:38:39;;;;;;;2.60;2.40;;;;;;;-145.79;65.90;76995.75;5272206;28;20105;-72
2023/08/09 11:41:15;;;;;;;2.70;2.50;;;;;;;-145.79;65.28;76966.09;5266909;28;20214;-72
2023/08/09 11:43:46;;;;;;;4.32;2.50;;;;;;;-145.79;62.66;76951.25;5258419;28;20497;-72
2023/08/09 11:46:22;;;;;;;4.13;2.47;;;;;;;-145.79;62.21;76951.25;5235035;28;20030;-72
2023/08/09 11:48:53;;;;;;;3.53;2.88;;;;;;;-145.79;63.23;76940.66;5272828;28;20067;-72
2023/08/09 11:51:25;;;;;;;2.90;2.65;;;;;;;-145.79;62.19;76944.91;5249928;28;20020;-71
2023/08/09 11:53:56;;;;;;;4.47;2.88;;;;;;;-145.79;62.71;76968.22;5252668;28;20030;-72
2023/08/09 11:56:35;;;;;;;3.00;2.40;;;;;;;-145.79;62.99;76968.22;5260320;28;20152;-72
2023/08/09 11:59:07;;;;;;;9.75;8.90;;;;;;;-145.79;62.97;76985.16;5229801;28;20026;-74
2023/08/09 12:01:39;;;;;;;3.70;3.40;;;;;;;-145.79;63.40;76987.28;5268512;28;20062;-73
2023/08/09 12:04:14;;;;;;;4.88;2.75;;;;;;;-145.79;64.16;76993.63;5263999;28;20471;-74
2023/08/09 12:06:54;;;;;;;3.33;3.00;;;;;;;-145.79;62.97;76987.28;5273934;28;20037;-73
2023/08/09 12:09:39;;;;;;;4.05;3.58;;;;;;;-145.79;62.65;76976.69;5266704;28;20053;-72
2023/08/09 12:12:18;;;;;;;4.25;3.80;;;;;;;-145.79;62.13;76974.56;5222618;28;20022;-73
2023/08/09 12:14:52;;;;;;;4.20;3.80;;;;;;;-145.79;62.23;76961.84;5215679;28;20037;-72
2023/08/09 12:17:26;;;;;;;5.32;4.78;;;;;;;-145.79;63.05;76947.00;5266868;28;20030;-72
2023/08/09 12:20:00;;;;;;;5.80;4.20;;;;;;;-145.79;63.00;76934.28;5229917;28;20364;-72
2023/08/09 12:22:32;;;;;;;4.50;4.10;;;;;;;-145.79;62.57;76932.19;5274967;28;20070;-70
2023/08/09 12:25:04;;;;;;;6.03;5.45;;;;;;;-145.79;62.59;76942.78;5291402;28;20463;-70
2023/08/09 12:27:36;;;;;;;5.20;4.78;;;;;;;-145.79;62.77;76927.94;5246755;28;20493;-70
2023/08/09 12:30:10;;;;;;;4.80;4.30;;;;;;;-145.79;63.77;76915.22;5273918;28;20025;-71
2023/08/09 12:32:41;;;;;;;6.00;5.50;;;;;;;-145.79;62.41;76896.16;5231769;28;20058;-70
2023/08/09 12:35:13;;;;;;;5.25;4.85;;;;;;;-145.79;63.19;76887.66;5282206;28;20334;-70
2023/08/09 12:37:46;;;;;;;6.78;6.10;;;;;;;-145.79;59.84;76930.06;5262706;28;20027;-71
2023/08/09 12:40:17;;;;;;;6.05;4.68;;;;;;;-145.79;62.30;76906.75;5251984;28;20038;-71
2023/08/09 12:42:51;;;;;;;5.70;5.30;;;;;;;-145.79;62.75;76932.19;5268347;28;20035;-72
2023/08/09 12:45:22;;;;;;;5.28;4.78;;;;;;;-145.79;64.55;76932.19;5252810;28;20030;-70
2023/08/09 12:47:53;;;;;;;3.80;3.50;;;;;;;-145.79;64.14;76913.09;5291952;28;20471;-70
2023/08/09 12:50:25;;;;;;;3.38;2.53;;;;;;;-145.79;59.15;76894.03;5253069;28;20019;-70
2023/08/09 12:52:56;;;;;;;3.22;2.20;;;;;;;-145.79;59.44;76877.06;5292029;28;20333;-70
2023/08/09 12:55:28;;;;;;;5.10;2.30;;;;;;;-145.79;57.47;76881.31;5279191;28;20109;-70
2023/08/09 12:58:00;;;;;;;2.83;2.10;;;;;;;-145.79;57.85;76862.25;5273683;28;20034;-71
2023/08/09 13:00:31;;;;;;;3.55;1.98;;;;;;;-145.79;58.89;76860.13;5261986;28;20085;-71
2023/08/09 13:03:03;;;;;;;2.42;2.03;;;;;;;-145.79;59.30;76838.94;5264735;28;20471;-70
2023/08/09 13:05:35;;;;;;;3.08;1.92;;;;;;;-145.79;58.17;76817.72;5279777;28;20036;-71
2023/08/09 13:08:06;;;;;;;5.35;2.35;;;;;;;-145.79;59.54;76817.72;5271145;28;20544;-70
2023/08/09 13:10:37;;;;;;;2.67;2.00;;;;;;;-145.79;59.10;76847.41;5271981;28;20035;-70
2023/08/09 13:13:09;;;;;;;2.28;1.77;;;;;;;-145.79;59.14;76879.19;5286467;28;20042;-71
2023/08/09 13:15:40;;;;;;;4.03;2.08;;;;;;;-145.79;56.65;76915.22;5283909;28;20046;-72
2023/08/09 13:18:11;;;;;;;9.98;9.00;;;;;;;-145.79;58.52;76927.94;5266489;28;20043;-72
2023/08/09 13:20:43;;;;;;;8.77;7.88;;;;;;;-145.79;59.36;76927.94;5269759;28;20100;-72
2023/08/09 13:23:14;;;;;;;3.33;2.50;;;;;;;-145.79;57.42;76902.50;5275378;28;20045;-72
2023/08/09 13:25:47;;;;;;;5.00;1.73;;;;;;;-145.79;57.04;76853.75;5270588;28;20029;-74
2023/08/09 13:28:18;;;;;;;3.63;1.90;;;;;;;-145.79;55.53;76817.72;5275081;28;20022;-72
2023/08/09 13:30:50;;;;;;;2.80;1.50;;;;;;;-145.79;53.50;76813.50;5279991;28;20051;-72
2023/08/09 13:33:22;;;;;;;3.42;1.83;;;;;;;-145.79;54.36;76796.53;5290756;28;20090;-72
2023/08/09 13:35:53;;;;;;;4.40;1.90;;;;;;;-145.79;53.61;76781.69;5243279;28;20054;-73
2023/08/09 13:38:40;;;;;;;2.60;1.50;;;;;;;-145.79;53.88;76762.63;5274679;28;20030;-72
2023/08/09 13:41:11;;;;;;;2.95;1.65;;;;;;;-145.79;52.83;76758.38;5269858;28;20388;-73
2023/08/09 13:43:43;;;;;;;2.50;1.40;;;;;;;-145.79;49.56;76762.63;5274836;28;20034;-72
2023/08/09 13:46:15;;;;;;;5.47;4.97;;;;;;;-145.79;50.14;76741.44;5284467;28;20384;-73
2023/08/09 13:48:46;;;;;;;3.92;1.88;;;;;;;-145.79;50.21;76735.06;5290797;28;20110;-72
2023/08/09 13:51:18;;;;;;;1.77;1.40;;;;;;;-145.79;48.94;76745.69;5281022;28;20559;-72
2023/08/09 13:53:52;;;;;;;2.83;1.60;;;;;;;-145.79;49.66;76732.97;5259573;28;20023;-72
2023/08/09 13:56:23;;;;;;;3.15;1.55;;;;;;;-145.79;49.34;76735.06;5281733;28;20120;-72
2023/08/09 13:58:54;;;;;;;3.35;2.53;;;;;;;-145.79;49.06;76716.00;5272057;28;20057;-72
2023/08/09 14:01:26;;;;;;;4.00;1.70;;;;;;;-145.79;48.19;76705.41;5271704;28;20054;-72
2023/08/09 14:03:57;;;;;;;4.78;1.67;;;;;;;-145.79;48.51;76692.69;5274502;28;20056;-71
2023/08/09 14:06:29;;;;;;;3.15;1.52;;;;;;;-145.79;47.61;76741.44;5281188;28;20094;-71
2023/08/09 14:09:00;;;;;;;3.97;1.30;;;;;;;-145.79;47.19;76747.78;5255719;28;20406;-71
2023/08/09 14:11:31;;;;;;;2.42;1.48;;;;;;;-145.79;47.05;76724.47;5268764;28;20031;-71
2023/08/09 14:14:03;;;;;;;3.80;1.73;;;;;;;-145.79;46.53;76716.00;5273011;28;20100;-71
2023/08/09 14:16:34;;;;;;;1.45;1.15;;;;;;;-145.79;46.40;76707.53;5271948;28;20019;-71
2023/08/09 14:19:06;;;;;;;3.13;1.80;;;;;;;-145.79;46.58;76696.94;5273495;28;20031;-72
2023/08/09 14:21:38;;;;;;;7.03;5.63;;;;;;;-145.79;45.54;76703.28;5275739;28;20099;-71
2023/08/09 14:24:09;;;;;;;2.95;1.40;;;;;;;-145.79;46.03;76682.09;5289697;28;20028;-72
2023/08/09 14:26:41;;;;;;;1.85;1.45;;;;;;;-145.79;45.42;76694.81;5240750;28;20434;-71
2023/08/09 14:29:14;;;;;;;2.95;1.38;;;;;;;-145.79;45.14;76705.41;5272473;28;20028;-71
2023/08/09 14:31:45;;;;;;;2.80;1.20;;;;;;;-145.79;45.25;76711.75;5270273;28;20029;-72
2023/08/09 14:34:17;;;;;;;2.40;1.38;;;;;;;-145.79;44.97;76716.00;5290661;28;20456;-72
2023/08/09 14:36:48;;;;;;;5.97;2.03;;;;;;;-145.79;45.42;76684.22;5253874;28;20112;-72
2023/08/09 14:39:20;;;;;;;3.63;3.22;;;;;;;-145.79;43.02;76718.13;5289787;28;20030;-72
2023/08/09 14:41:51;;;;;;;9.05;3.80;;;;;;;-145.79;43.87;76728.72;5250596;28;20033;-72
2023/08/09 14:44:23;;;;;;;2.70;1.50;;;;;;;-145.79;43.81;76747.78;5238598;28;20024;-72
2023/08/09 14:46:54;;;;;;;3.72;1.48;;;;;;;-145.79;44.80;76785.94;5289947;28;20027;-71
2023/08/09 14:49:26;;;;;;;3.20;1.45;;;;;;;-145.79;45.89;76781.69;5273055;28;20074;-70
2023/08/09 14:51:57;;;;;;;5.60;1.63;;;;;;;-145.79;45.28;76802.91;5272976;28;20438;-71
2023/08/09 14:54:28;;;;;;;2.72;1.30;;;;;;;-145.79;46.10;76817.72;5287873;28;20027;-71
2023/08/09 14:57:00;;;;;;;2.03;1.40;;;;;;;-145.79;46.48;76790.19;5289336;28;20336;-70
2023/08/09 14:59:31;;;;;;;2.60;1.23;;;;;;;-145.79;46.40;76766.88;5277324;28;20021;-70
2023/08/09 15:02:02;;;;;;;2.92;1.65;;;;;;;-145.79;47.88;76792.31;5260006;28;20036;-70
2023/08/09 15:04:35;;;;;;;2.63;1.45;;;;;;;-145.79;50.36;76792.31;5277765;28;20021;-70
2023/08/09 15:07:08;;;;;;;3.15;1.92;;;;;;;-145.79;50.14;76809.25;5273476;28;20026;-70
2023/08/09 15:09:39;;;;;;;2.35;1.50;;;;;;;-145.79;50.25;76826.22;5243408;28;20038;-71
2023/08/09 15:12:11;;;;;;;3.00;1.70;;;;;;;-145.79;49.13;76826.22;5248843;28;20033;-71
2023/08/09 15:14:42;;;;;;;2.35;1.73;;;;;;;-145.79;49.66;76834.69;5283968;28;20097;-70
2023/08/09 15:17:13;;;;;;;6.13;5.10;;;;;;;-145.79;50.01;76830.44;5249808;28;20042;-70
2023/08/09 15:19:45;;;;;;;3.33;1.52;;;;;;;-145.79;49.62;76851.63;5269895;28;20073;-70
2023/08/09 15:22:16;;;;;;;2.15;1.45;;;;;;;-145.79;49.66;76860.13;5228802;28;20065;-71
2023/08/09 15:24:48;;;;;;;3.17;1.67;;;;;;;-145.79;50.03;76860.13;5265968;28;20025;-70
2023/08/09 15:27:19;;;;;;;2.85;1.83;;;;;;;-145.79;50.06;76853.75;5273553;28;20464;-72
2023/08/09 15:29:50;;;;;;;3.38;1.85;;;;;;;-145.79;49.80;76849.53;5279551;28;20036;-72
2023/08/09 15:32:22;;;;;;;3.85;1.58;;;;;;;-145.79;46.77;76838.94;5265528;28;20381;-72
2023/08/09 15:34:53;;;;;;;2.83;1.52;;;;;;;-145.79;47.88;76834.69;5241188;28;20469;-72
2023/08/09 15:37:24;;;;;;;6.60;2.22;;;;;;;-145.79;49.00;76843.16;5272546;28;20116;-72
2023/08/09 15:39:56;;;;;;;4.30;1.70;;;;;;;-145.79;49.55;76853.75;5275269;28;20033;-73
2023/08/09 15:42:28;;;;;;;2.00;1.67;;;;;;;-145.79;49.79;76843.16;5267604;28;20067;-73
2023/08/09 15:45:01;;;;;;;18.10;16.50;;;;;;;-145.79;49.57;76834.69;5289748;28;20111;-74
2023/08/09 15:47:32;;;;;;;2.47;1.48;;;;;;;-145.79;49.27;76858.00;5275930;28;20025;-73
2023/08/09 15:50:04;;;;;;;3.80;2.00;;;;;;;-145.79;49.95;76860.13;5278710;28;20086;-73
2023/08/09 15:52:35;;;;;;;3.38;1.70;;;;;;;-145.79;49.63;76870.72;5276397;28;20123;-72
2023/08/09 15:55:08;;;;;;;1.92;1.73;;;;;;;-145.79;49.81;76900.38;5239495;28;20022;-73
2023/08/09 15:57:39;;;;;;;3.35;1.75;;;;;;;-145.79;50.07;76898.25;5221943;28;20030;-72
2023/08/09 16:00:12;;;;;;;2.97;1.73;;;;;;;-145.79;49.79;76913.09;5275649;28;20075;-73
2023/08/09 16:02:43;;;;;;;4.13;2.17;;;;;;;-145.79;49.67;76902.50;5270275;28;20043;-73
2023/08/09 16:05:16;;;;;;;5.10;1.85;;;;;;;-145.79;49.81;76904.63;5292738;28;20023;-73
2023/08/09 16:07:49;;;;;;;4.55;1.80;;;;;;;-145.79;49.47;76915.22;5210664;28;20029;-72
2023/08/09 16:10:21;;;;;;;2.90;2.13;;;;;;;-145.79;49.51;76896.16;5219244;28;20057;-72
2023/08/09 16:12:54;;;;;;;2.08;1.42;;;;;;;-145.79;49.49;76885.56;5275945;28;20025;-81
2023/08/09 16:15:25;;;;;;;14.88;13.38;;;;;;;-145.79;48.16;76898.25;5276241;28;20042;-80
2023/08/09 16:17:57;;;;;;;3.80;1.80;;;;;;;-145.79;48.26;76896.16;5294110;28;20015;-77
2023/08/09 16:20:28;;;;;;;4.32;1.70;;;;;;;-145.79;47.67;76879.19;5292136;28;20019;-76
2023/08/09 16:23:00;;;;;;;5.03;1.50;;;;;;;-145.79;47.64;76887.66;5276332;28;20042;-78
2023/08/09 16:25:31;;;;;;;2.67;1.20;;;;;;;-145.79;47.36;76906.75;5262906;28;20422;-81
2023/08/09 16:28:03;;;;;;;4.05;1.88;;;;;;;-145.79;47.85;76902.50;5274703;28;20033;-81
2023/08/09 16:30:36;;;;;;;6.28;1.67;;;;;;;-145.79;47.81;76898.25;5276145;28;20030;-81
2023/08/09 16:33:07;;;;;;;2.67;1.55;;;;;;;-145.79;48.00;76898.25;5290368;28;20023;-81
2023/08/09 16:35:40;;;;;;;2.58;1.73;;;;;;;-145.79;47.40;76894.03;5291791;28;20057;-81
2023/08/09 16:38:12;;;;;;;2.50;1.70;;;;;;;-145.79;46.96;76902.50;5278058;28;20025;-81
2023/08/09 16:40:43;;;;;;;2.28;1.52;;;;;;;-145.79;46.50;76913.09;5275227;28;20492;-80
2023/08/09 16:43:14;;;;;;;2.42;1.60;;;;;;;-145.79;46.97;76949.13;5278699;28;20066;-81
2023/08/09 16:45:46;;;;;;;2.75;1.40;;;;;;;-145.79;47.22;76940.66;5262850;28;20025;-81
2023/08/09 16:48:17;;;;;;;2.08;1.30;;;;;;;-145.79;46.06;76923.69;5286892;28;20122;-81
2023/08/09 16:50:51;;;;;;;3.58;1.52;;;;;;;-145.79;45.62;76919.47;5291330;28;20039;-81
2023/08/09 16:53:22;;;;;;;2.28;1.38;;;;;;;-145.79;46.04;76902.50;5279991;28;20142;-81
